Terminal Aerodrome Forecast
Issued by NWS Twin Cities, MN

Home | Current Version | Previous Version | Text Only | Print | Product List | Glossary Off
Versions: 1 2 3 4 5 6 7 8 9 10 11 12 13 14 15 16

000
FTUS43 KMPX 280522 CCA
TAFSTC
TAF COR
KSTC 280522Z 2806/2906 15010KT P6SM OVC012
     FM280800 15008KT P6SM OVC008
     FM281000 14009KT P6SM OVC012
     FM282100 VRB04KT P6SM OVC018
     FM290200 04008KT P6SM OVC009
     FM290400 34012G19KT P6SM OVC009=

USA.gov is the U.S. government's official web portal to all federal, state and local government web resources and services.